Arnolds Park, Iowa
Current Conditions -  °F | °C
As of 8:09 AM on Sunday 23 Nov 2014 (Local Time) from KSPW Reporting Station
Haze Haze  
Wind Chill: 45°   Ceiling: 500
Heat Index: 49°   Visibility: 3mi
Dew Point: 48°   Wind: 8mph
Humidity: 97%   Direction: 190°S
Pressure: 29.46"   Gusts: NA
Location:  43.37°N, 95.12°W
Report Text: KSPW 231409Z AUTO 19007KT 3SM BR OVC005 09/09 A2946 RMK AO2 T00940089 TSNO
Loading
Personal Weather Stations






























Interactive Weather Map New forecast layout! Learn more

10-Day Weather Forecast

Advertisements
Track Severe Weather on mobile